Time;durP1;ratioP1;P1;durP2;ratioP2;P2;SDS_P1;SDS_P2;PMS_P1;PMS_P2;Temp;Humidity;BMP_temperature;BMP_pressure;BME280_temperature;BME280_humidity;BME280_pressure;Samples;Min_cycle;Max_cycle;Signal;HPM_P1;HPM_P2
2023/06/20 00:02:14;;;;;;;15.18;9.60;;;16.20;81.20;;;;;;5043246;28;20372;-66
2023/06/20 00:04:40;;;;;;;16.25;9.68;;;16.20;81.30;;;;;;5037569;28;20430;-66
2023/06/20 00:07:06;;;;;;;16.15;10.30;;;16.10;81.30;;;;;;5035234;28;20047;-66
2023/06/20 00:09:31;;;;;;;17.77;10.23;;;16.10;81.70;;;;;;5039203;28;20047;-66
2023/06/20 00:11:57;;;;;;;17.45;10.30;;;16.00;82.70;;;;;;5038156;28;20025;-66
2023/06/20 00:14:23;;;;;;;19.40;9.93;;;15.90;82.30;;;;;;5046342;28;20091;-66
2023/06/20 00:16:48;;;;;;;14.40;9.32;;;15.90;82.50;;;;;;5043821;28;20041;-66
2023/06/20 00:19:14;;;;;;;15.80;10.25;;;15.90;82.50;;;;;;5042871;28;20041;-66
2023/06/20 00:21:40;;;;;;;15.80;9.40;;;15.90;82.70;;;;;;5037662;28;20079;-66
2023/06/20 00:24:09;;;;;;;18.15;10.02;;;15.90;82.80;;;;;;5035682;28;20033;-66
2023/06/20 00:26:37;;;;;;;16.00;10.20;;;15.90;83.00;;;;;;5039040;28;20388;-66
2023/06/20 00:29:03;;;;;;;17.25;10.05;;;15.80;82.90;;;;;;5036761;28;20296;-66
2023/06/20 00:31:28;;;;;;;15.52;9.50;;;15.90;83.20;;;;;;5038609;28;20033;-66
2023/06/20 00:33:54;;;;;;;13.93;9.57;;;15.90;83.30;;;;;;5043376;28;20361;-66
2023/06/20 00:36:25;;;;;;;16.17;10.05;;;15.90;83.40;;;;;;5039951;28;20052;-66
2023/06/20 00:38:54;;;;;;;16.48;9.60;;;15.90;83.40;;;;;;5032145;28;20041;-66
2023/06/20 00:41:21;;;;;;;13.25;9.20;;;15.90;83.50;;;;;;5039623;28;20400;-67
2023/06/20 00:43:49;;;;;;;16.27;9.65;;;15.90;83.50;;;;;;5045048;28;20037;-66
2023/06/20 00:46:23;;;;;;;16.08;10.13;;;15.90;83.70;;;;;;5026234;28;20041;-66
2023/06/20 00:48:49;;;;;;;12.98;8.70;;;15.90;83.70;;;;;;5026790;28;20560;-66
2023/06/20 00:51:16;;;;;;;17.42;9.50;;;15.90;83.50;;;;;;5041686;28;20082;-66
2023/06/20 00:53:43;;;;;;;17.63;9.93;;;16.00;83.50;;;;;;5033017;28;20053;-66
2023/06/20 00:56:12;;;;;;;17.25;9.27;;;15.90;83.80;;;;;;5043436;28;20477;-66
2023/06/20 00:58:38;;;;;;;14.68;9.00;;;15.90;84.10;;;;;;5046804;28;20041;-66
2023/06/20 01:01:03;;;;;;;15.75;9.25;;;15.90;84.20;;;;;;5044754;28;20530;-66
2023/06/20 01:03:31;;;;;;;16.90;9.70;;;15.80;84.40;;;;;;5014998;28;20092;-66
2023/06/20 01:06:11;;;;;;;17.25;9.73;;;15.80;85.40;;;;;;5036104;28;20490;-66
2023/06/20 01:08:54;;;;;;;14.98;8.50;;;15.90;85.90;;;;;;5036290;28;20068;-66
2023/06/20 01:11:22;;;;;;;15.57;9.45;;;15.90;84.90;;;;;;5036012;28;20071;-66
2023/06/20 01:13:52;;;;;;;14.65;9.35;;;15.90;84.80;;;;;;5037261;28;20082;-67
2023/06/20 01:16:31;;;;;;;14.50;9.02;;;16.00;85.00;;;;;;5038144;28;20511;-66
2023/06/20 01:19:15;;;;;;;12.68;7.93;;;16.00;84.90;;;;;;5037815;28;20041;-66
2023/06/20 01:21:46;;;;;;;14.20;8.80;;;16.00;84.70;;;;;;5031765;28;20056;-66
2023/06/20 01:24:31;;;;;;;13.30;8.43;;;15.90;84.60;;;;;;5039898;28;20033;-66
2023/06/20 01:27:08;;;;;;;15.05;8.68;;;15.90;85.30;;;;;;5036548;28;20068;-66
2023/06/20 01:29:45;;;;;;;18.35;9.45;;;15.90;85.10;;;;;;5035944;28;20099;-67
2023/06/20 01:32:16;;;;;;;14.85;9.25;;;16.00;85.60;;;;;;5035978;28;20045;-66
2023/06/20 01:34:47;;;;;;;;;;;16.00;85.30;;;;;;5036418;28;20077;-66
2023/06/20 01:37:16;;;;;;;14.90;9.52;;;16.00;87.60;;;;;;5042919;28;19951;-66
2023/06/20 01:39:49;;;;;;;17.65;9.80;;;16.00;85.30;;;;;;5038030;28;20049;-66
2023/06/20 01:42:17;;;;;;;14.88;9.90;;;16.00;85.90;;;;;;5037009;28;20037;-67
2023/06/20 01:44:44;;;;;;;16.17;10.20;;;16.00;85.70;;;;;;5032021;28;20044;-66
2023/06/20 01:47:11;;;;;;;16.95;9.80;;;16.00;85.90;;;;;;5037390;28;20154;-66
2023/06/20 01:49:39;;;;;;;17.45;9.75;;;16.00;86.20;;;;;;5037729;28;20041;-66
2023/06/20 01:52:06;;;;;;;17.35;10.20;;;16.00;86.20;;;;;;5028183;28;20049;-66
2023/06/20 01:54:34;;;;;;;19.08;11.02;;;16.10;86.30;;;;;;5038601;28;20045;-66
2023/06/20 01:57:02;;;;;;;16.40;10.68;;;16.10;86.40;;;;;;5032776;28;20042;-66
2023/06/20 01:59:28;;;;;;;18.35;11.55;;;16.10;87.30;;;;;;5036892;28;20498;-66
2023/06/20 02:01:56;;;;;;;17.92;11.45;;;16.10;86.80;;;;;;5038572;28;20587;-66
2023/06/20 02:04:24;;;;;;;16.75;10.98;;;16.00;87.10;;;;;;5038926;28;20037;-66
2023/06/20 02:06:50;;;;;;;15.95;11.23;;;16.00;87.20;;;;;;5046320;28;20049;-66
2023/06/20 02:09:17;;;;;;;18.55;11.48;;;16.00;87.30;;;;;;5036696;28;20040;-66
2023/06/20 02:11:45;;;;;;;19.75;11.35;;;16.10;87.50;;;;;;5031257;28;20385;-66
2023/06/20 02:14:11;;;;;;;19.05;10.85;;;16.10;87.40;;;;;;5041766;28;20045;-66
2023/06/20 02:16:38;;;;;;;24.05;13.38;;;16.10;87.60;;;;;;5041178;28;20973;-66
2023/06/20 02:19:06;;;;;;;21.02;12.48;;;16.10;87.70;;;;;;5041981;28;20049;-67
2023/06/20 02:21:36;;;;;;;20.73;12.48;;;16.00;87.90;;;;;;5023363;28;20042;-66
2023/06/20 02:24:04;;;;;;;;;;;16.10;88.20;;;;;;5040708;28;20045;-67
2023/06/20 02:26:34;;;;;;;20.50;11.93;;;16.10;89.90;;;;;;5049051;28;20020;-66
2023/06/20 02:29:05;;;;;;;24.25;12.90;;;16.10;87.80;;;;;;5045529;28;20036;-67
2023/06/20 02:31:33;;;;;;;24.98;13.60;;;16.10;88.10;;;;;;5018485;28;20123;-67
2023/06/20 02:34:04;;;;;;;23.38;12.73;;;16.10;88.30;;;;;;5041343;28;20175;-66
2023/06/20 02:36:31;;;;;;;18.27;12.45;;;16.10;88.60;;;;;;5037301;28;20045;-66
2023/06/20 02:38:57;;;;;;;24.33;12.98;;;16.10;88.60;;;;;;5028088;28;20098;-67
2023/06/20 02:41:26;;;;;;;23.95;14.77;;;16.10;88.80;;;;;;5048549;28;20052;-66
2023/06/20 02:43:52;;;;;;;23.42;14.00;;;16.10;89.10;;;;;;5044296;28;20132;-66
2023/06/20 02:46:36;;;;;;;24.50;14.55;;;16.10;89.10;;;;;;5047057;28;20490;-66
2023/06/20 02:49:20;;;;;;;23.38;13.82;;;16.10;90.10;;;;;;5030459;28;20059;-66
2023/06/20 02:52:05;;;;;;;22.23;14.00;;;16.10;90.10;;;;;;5031411;28;20186;-66
2023/06/20 02:55:08;;;;;;;26.02;14.85;;;16.10;89.80;;;;;;5056467;28;20052;-68
2023/06/20 02:57:42;;;;;;;26.02;13.98;;;16.10;90.00;;;;;;5032085;28;20124;-66
2023/06/20 03:00:11;;;;;;;23.08;14.23;;;16.10;89.60;;;;;;5028138;28;20057;-66
2023/06/20 03:03:09;;;;;;;25.38;15.35;;;16.10;89.80;;;;;;5062695;28;20033;-67
2023/06/20 03:05:44;;;;;;;26.13;13.95;;;16.20;90.70;;;;;;5043681;28;20135;-66
2023/06/20 03:08:17;;;;;;;23.20;13.88;;;16.10;90.00;;;;;;5040221;28;20123;-66
2023/06/20 03:10:43;;;;;;;25.38;15.38;;;16.20;90.00;;;;;;5047916;28;20141;-66
2023/06/20 03:13:14;;;;;;;24.23;13.80;;;16.20;89.80;;;;;;5044473;28;20047;-66
2023/06/20 03:15:40;;;;;;;23.33;14.32;;;16.20;89.60;;;;;;5044579;28;20041;-66
2023/06/20 03:18:07;;;;;;;22.42;13.65;;;16.30;89.40;;;;;;5046316;28;20120;-66
2023/06/20 03:20:33;;;;;;;24.73;14.43;;;16.30;89.40;;;;;;5040370;28;20047;-66
2023/06/20 03:22:59;;;;;;;27.20;14.45;;;16.30;89.40;;;;;;5037618;28;20441;-67
2023/06/20 03:25:24;;;;;;;23.88;13.88;;;16.30;89.30;;;;;;5035509;28;20430;-67
2023/06/20 03:27:50;;;;;;;28.02;15.15;;;16.30;89.30;;;;;;5043413;28;20033;-66
2023/06/20 03:30:15;;;;;;;22.75;15.07;;;16.30;89.40;;;;;;5043807;28;20198;-66
2023/06/20 03:32:41;;;;;;;26.48;12.65;;;16.30;89.20;;;;;;5026464;28;20044;-66
2023/06/20 03:35:07;;;;;;;24.55;14.55;;;16.30;89.10;;;;;;5039143;28;20368;-66
2023/06/20 03:37:33;;;;;;;23.42;13.68;;;16.30;88.90;;;;;;5041928;28;20076;-70
2023/06/20 03:39:59;;;;;;;25.75;13.75;;;16.30;88.70;;;;;;5044593;28;20075;-67
2023/06/20 03:42:24;;;;;;;26.65;14.40;;;16.40;88.70;;;;;;5028229;28;20048;-66
2023/06/20 03:44:50;;;;;;;27.05;14.20;;;16.40;88.50;;;;;;5034624;28;20321;-67
2023/06/20 03:47:16;;;;;;;25.15;14.32;;;16.40;88.30;;;;;;5029741;28;20481;-66
2023/06/20 03:49:41;;;;;;;24.27;14.20;;;16.40;88.10;;;;;;5039720;28;20457;-67
2023/06/20 03:52:07;;;;;;;24.05;13.80;;;16.40;88.00;;;;;;5067988;28;20056;-66
2023/06/20 03:54:34;;;;;;;21.58;13.00;;;16.50;87.70;;;;;;5045030;28;20064;-66
2023/06/20 03:57:03;;;;;;;20.85;13.75;;;16.50;87.60;;;;;;5039517;28;20091;-66
2023/06/20 03:59:28;;;;;;;22.55;12.85;;;16.50;87.40;;;;;;5045917;28;20056;-67
2023/06/20 04:01:54;;;;;;;24.13;13.68;;;16.50;87.30;;;;;;5037615;28;20045;-67
2023/06/20 04:04:20;;;;;;;23.15;13.15;;;16.50;87.00;;;;;;5041912;28;20044;-66
2023/06/20 04:06:49;;;;;;;20.60;12.57;;;16.60;86.80;;;;;;5034326;28;20068;-67
2023/06/20 04:09:17;;;;;;;20.92;13.05;;;16.60;86.60;;;;;;5037665;28;20032;-66
2023/06/20 04:11:43;;;;;;;22.17;13.00;;;16.60;86.60;;;;;;5039344;28;20065;-66
2023/06/20 04:14:08;;;;;;;19.27;11.93;;;16.60;86.40;;;;;;5038208;28;20072;-66
2023/06/20 04:16:34;;;;;;;18.67;11.30;;;16.70;86.20;;;;;;5043648;28;20044;-66
2023/06/20 04:18:59;;;;;;;17.65;11.63;;;16.70;86.10;;;;;;5037832;28;20480;-66
2023/06/20 04:21:25;;;;;;;18.55;11.50;;;16.70;85.70;;;;;;5038176;28;20053;-66
2023/06/20 04:23:50;;;;;;;19.15;11.95;;;16.70;85.60;;;;;;5035972;28;20143;-67
2023/06/20 04:26:16;;;;;;;20.15;12.07;;;16.80;85.40;;;;;;5008945;28;20119;-66
2023/06/20 04:28:42;;;;;;;18.85;12.40;;;16.80;85.20;;;;;;5039461;28;20201;-66
2023/06/20 04:31:08;;;;;;;19.50;11.85;;;16.80;85.10;;;;;;5038412;28;20504;-66
2023/06/20 04:33:33;;;;;;;20.85;11.88;;;16.90;85.10;;;;;;5044938;28;20067;-66
2023/06/20 04:35:59;;;;;;;18.08;11.52;;;16.90;84.80;;;;;;5041368;28;20132;-67
2023/06/20 04:38:25;;;;;;;18.90;12.75;;;16.90;84.70;;;;;;5031988;28;20372;-67
2023/06/20 04:40:50;;;;;;;21.83;12.60;;;17.00;84.60;;;;;;5027181;28;20043;-66
2023/06/20 04:43:16;;;;;;;18.25;11.07;;;17.00;84.40;;;;;;5041205;28;20041;-66
2023/06/20 04:45:42;;;;;;;21.10;12.75;;;17.10;84.10;;;;;;5042361;28;20642;-67
2023/06/20 04:48:07;;;;;;;17.10;10.75;;;17.10;83.70;;;;;;5040808;28;20140;-67
2023/06/20 04:50:33;;;;;;;16.85;11.32;;;17.20;83.30;;;;;;5040368;28;20516;-67
2023/06/20 04:52:59;;;;;;;16.80;11.60;;;17.30;83.20;;;;;;5036073;28;20043;-67
2023/06/20 04:55:24;;;;;;;16.70;10.77;;;17.40;82.90;;;;;;5036403;28;20546;-67
2023/06/20 04:57:50;;;;;;;20.02;12.43;;;17.50;82.50;;;;;;5045385;28;20036;-67
2023/06/20 05:00:16;;;;;;;19.13;10.60;;;17.60;82.20;;;;;;5046292;28;20033;-67
2023/06/20 05:02:42;;;;;;;18.77;12.38;;;17.70;81.90;;;;;;5036667;28;20151;-67
2023/06/20 05:05:08;;;;;;;18.25;11.48;;;17.80;81.70;;;;;;5040023;28;20124;-67
2023/06/20 05:07:34;;;;;;;23.80;12.75;;;17.90;81.40;;;;;;5033355;28;20041;-67
2023/06/20 05:10:00;;;;;;;18.65;12.75;;;18.00;80.90;;;;;;5036876;28;20037;-67
2023/06/20 05:12:25;;;;;;;20.70;12.57;;;18.10;80.40;;;;;;5039142;28;20164;-67
2023/06/20 05:14:51;;;;;;;19.67;12.65;;;18.30;79.90;;;;;;5038360;28;20119;-67
2023/06/20 05:17:16;;;;;;;18.55;12.35;;;18.40;79.40;;;;;;5021633;28;20049;-68
2023/06/20 05:19:42;;;;;;;20.80;12.88;;;18.50;78.90;;;;;;5036156;28;20040;-68
2023/06/20 05:22:07;;;;;;;18.10;12.07;;;18.60;78.50;;;;;;5038187;28;20045;-67
2023/06/20 05:24:33;;;;;;;16.30;11.85;;;18.80;78.10;;;;;;5037674;28;20076;-67
2023/06/20 05:26:59;;;;;;;18.52;12.52;;;18.90;77.70;;;;;;5040399;28;20075;-67
2023/06/20 05:29:24;;;;;;;20.77;13.02;;;19.00;77.30;;;;;;5040013;28;20144;-67
2023/06/20 05:31:50;;;;;;;19.85;12.93;;;19.00;76.80;;;;;;5031402;28;20109;-68
2023/06/20 05:34:15;;;;;;;24.33;12.05;;;19.00;76.60;;;;;;5033903;28;20042;-67
2023/06/20 05:36:41;;;;;;;19.80;12.02;;;19.10;76.30;;;;;;5040966;28;20071;-67
2023/06/20 05:39:08;;;;;;;19.17;11.98;;;19.10;76.10;;;;;;5044962;28;20131;-67
2023/06/20 05:41:35;;;;;;;19.48;11.30;;;19.10;75.80;;;;;;5052007;28;20041;-67
2023/06/20 05:44:01;;;;;;;18.98;11.98;;;19.10;75.40;;;;;;5050382;28;20047;-67
2023/06/20 05:46:26;;;;;;;16.73;11.35;;;19.10;75.20;;;;;;5050306;28;20392;-68
2023/06/20 05:48:52;;;;;;;18.70;11.43;;;19.10;75.00;;;;;;5035126;28;20673;-67
2023/06/20 05:51:18;;;;;;;16.23;11.38;;;19.20;74.80;;;;;;5038712;28;20049;-67
2023/06/20 05:53:43;;;;;;;16.67;11.48;;;19.20;74.50;;;;;;5037586;28;20044;-67
2023/06/20 05:56:10;;;;;;;16.80;11.20;;;19.30;74.20;;;;;;5033495;28;20470;-68
2023/06/20 05:58:38;;;;;;;17.63;11.45;;;19.40;74.10;;;;;;5037045;28;20147;-67
2023/06/20 06:01:04;;;;;;;18.98;11.55;;;19.40;73.80;;;;;;5041074;28;20060;-67
2023/06/20 06:03:32;;;;;;;15.05;10.10;;;19.50;73.50;;;;;;5028378;28;20405;-68
2023/06/20 06:05:58;;;;;;;17.75;11.15;;;19.50;73.10;;;;;;5037531;28;20045;-67
2023/06/20 06:08:23;;;;;;;15.32;11.02;;;19.60;72.90;;;;;;5047594;28;20657;-67
2023/06/20 06:10:49;;;;;;;16.25;10.38;;;19.60;72.50;;;;;;5046958;28;20147;-68
2023/06/20 06:13:14;;;;;;;18.23;11.35;;;19.60;72.30;;;;;;5027105;28;20385;-67
2023/06/20 06:15:40;;;;;;;16.35;11.32;;;19.60;72.20;;;;;;5038077;28;20046;-67
2023/06/20 06:18:08;;;;;;;19.67;11.57;;;19.60;72.30;;;;;;5036769;28;20131;-67
2023/06/20 06:20:34;;;;;;;15.50;10.55;;;19.50;72.30;;;;;;5045369;28;20129;-67
2023/06/20 06:23:00;;;;;;;17.10;11.70;;;19.60;72.40;;;;;;5036254;28;20120;-67
2023/06/20 06:25:26;;;;;;;15.13;10.63;;;19.60;72.40;;;;;;5036667;28;20127;-67
2023/06/20 06:27:52;;;;;;;16.30;10.52;;;19.70;72.40;;;;;;5045239;28;20125;-67
2023/06/20 06:30:18;;;;;;;17.23;10.60;;;19.70;72.40;;;;;;5036456;28;20033;-67
2023/06/20 06:32:47;;;;;;;13.27;9.55;;;19.80;72.30;;;;;;5037366;28;20059;-68
2023/06/20 06:35:13;;;;;;;16.35;10.93;;;19.90;72.30;;;;;;5048321;28;20449;-67
2023/06/20 06:37:40;;;;;;;14.70;10.05;;;20.00;72.20;;;;;;5036947;28;20423;-68
2023/06/20 06:40:07;;;;;;;15.30;9.40;;;20.10;71.80;;;;;;5037939;28;20132;-67
2023/06/20 06:42:33;;;;;;;14.88;10.13;;;20.30;71.70;;;;;;5026383;28;20079;-68
2023/06/20 06:44:59;;;;;;;15.75;10.85;;;20.40;71.20;;;;;;5033168;28;20078;-68
2023/06/20 06:47:25;;;;;;;16.92;10.68;;;20.60;70.80;;;;;;5042013;28;20123;-66
2023/06/20 06:49:50;;;;;;;16.33;10.88;;;20.70;70.70;;;;;;5021468;28;20545;-68
2023/06/20 06:52:16;;;;;;;14.77;10.05;;;20.70;70.50;;;;;;5037759;28;20088;-67
2023/06/20 06:54:42;;;;;;;15.70;9.88;;;20.80;70.50;;;;;;5034589;28;20476;-68
2023/06/20 06:57:07;;;;;;;14.88;9.75;;;20.80;70.30;;;;;;5038298;28;20048;-67
2023/06/20 06:59:33;;;;;;;17.83;9.77;;;20.90;70.20;;;;;;5031568;28;20132;-68
2023/06/20 07:01:58;;;;;;;13.75;10.02;;;21.00;70.20;;;;;;5032225;28;20041;-68
2023/06/20 07:04:24;;;;;;;15.35;10.75;;;21.10;69.90;;;;;;5042363;28;20112;-67
2023/06/20 07:06:49;;;;;;;14.38;10.52;;;21.40;69.80;;;;;;5041834;28;20048;-66
2023/06/20 07:09:15;;;;;;;16.00;10.18;;;21.60;69.40;;;;;;5043352;28;20040;-68
2023/06/20 07:11:40;;;;;;;15.00;9.98;;;21.80;69.00;;;;;;5048818;28;20037;-68
2023/06/20 07:14:06;;;;;;;13.85;10.15;;;21.80;68.30;;;;;;5048100;28;20473;-66
2023/06/20 07:16:32;;;;;;;14.18;10.32;;;21.80;67.90;;;;;;5039382;28;20079;-66
2023/06/20 07:19:00;;;;;;;17.38;10.18;;;21.80;67.70;;;;;;5036153;28;20048;-66
2023/06/20 07:21:26;;;;;;;14.95;9.23;;;21.90;67.30;;;;;;5043801;28;20040;-66
2023/06/20 07:23:52;;;;;;;14.18;9.93;;;21.90;67.40;;;;;;5044705;28;20771;-65
2023/06/20 07:26:18;;;;;;;15.48;9.43;;;21.90;67.10;;;;;;5039419;28;20124;-65
2023/06/20 07:28:43;;;;;;;15.00;9.82;;;22.00;66.80;;;;;;5044971;28;20087;-66
2023/06/20 07:31:16;;;;;;;14.32;10.00;;;22.10;66.70;;;;;;5044213;28;20125;-66
2023/06/20 07:33:42;;;;;;;14.20;9.45;;;22.00;66.30;;;;;;5046107;28;20121;-64
2023/06/20 07:36:07;;;;;;;15.40;10.90;;;21.90;66.30;;;;;;5045558;28;20785;-66
2023/06/20 07:38:33;;;;;;;15.52;10.75;;;21.90;66.70;;;;;;5029802;28;20545;-65
2023/06/20 07:40:59;;;;;;;14.50;10.57;;;21.70;66.80;;;;;;5060464;28;20029;-66
2023/06/20 07:43:25;;;;;;;16.70;10.50;;;21.60;66.90;;;;;;5023567;28;20053;-65
2023/06/20 07:45:51;;;;;;;13.35;10.32;;;21.60;67.30;;;;;;5051459;28;20099;-65
2023/06/20 07:48:16;;;;;;;15.13;10.13;;;21.50;67.70;;;;;;5037090;28;20110;-65
2023/06/20 07:50:42;;;;;;;15.32;10.20;;;21.60;67.80;;;;;;5045453;28;20087;-66
2023/06/20 07:53:08;;;;;;;15.00;10.00;;;21.70;67.60;;;;;;5015949;28;20060;-65
2023/06/20 07:55:33;;;;;;;13.98;9.90;;;21.80;67.30;;;;;;5027444;28;20041;-65
2023/06/20 07:57:59;;;;;;;13.65;9.93;;;21.90;67.10;;;;;;5059308;28;20040;-65
2023/06/20 08:00:25;;;;;;;16.88;10.98;;;21.80;67.10;;;;;;5040390;28;20053;-65
2023/06/20 08:02:52;;;;;;;16.55;10.55;;;21.90;67.20;;;;;;5043041;28;20181;-66
2023/06/20 08:05:17;;;;;;;15.43;9.75;;;21.80;67.50;;;;;;5035860;28;20052;-65
2023/06/20 08:07:43;;;;;;;15.90;11.10;;;21.80;67.60;;;;;;5025975;28;20037;-66
2023/06/20 08:10:10;;;;;;;12.40;9.95;;;21.70;67.60;;;;;;5045331;28;20033;-68
2023/06/20 08:12:37;;;;;;;14.85;11.10;;;21.70;67.80;;;;;;5036366;28;20045;-68
2023/06/20 08:15:02;;;;;;;15.32;11.90;;;21.60;67.90;;;;;;5045007;28;20043;-65
2023/06/20 08:17:28;;;;;;;12.70;10.68;;;21.70;68.00;;;;;;5043359;28;20096;-64
2023/06/20 08:19:53;;;;;;;13.73;10.63;;;21.70;68.20;;;;;;5047417;28;20508;-67
2023/06/20 08:22:19;;;;;;;14.15;10.77;;;21.70;68.40;;;;;;5044323;28;20047;-67
2023/06/20 08:24:44;;;;;;;15.10;10.38;;;21.70;68.40;;;;;;5030038;28;20430;-68
2023/06/20 08:27:10;;;;;;;16.13;10.48;;;21.80;68.40;;;;;;5026132;28;20464;-68
2023/06/20 08:29:36;;;;;;;14.63;11.05;;;21.90;68.30;;;;;;5030947;28;20427;-68
2023/06/20 08:32:01;;;;;;;24.77;11.00;;;21.90;68.20;;;;;;5027144;28;20043;-66
2023/06/20 08:34:27;;;;;;;14.48;11.48;;;22.00;68.10;;;;;;5048890;28;20045;-68
2023/06/20 08:36:53;;;;;;;15.05;11.00;;;22.30;67.60;;;;;;5037763;28;20037;-68
2023/06/20 08:39:19;;;;;;;14.80;11.32;;;22.50;67.00;;;;;;5046690;28;20041;-67
2023/06/20 08:41:45;;;;;;;17.15;10.80;;;22.70;66.40;;;;;;5047172;28;20051;-64
2023/06/20 08:44:11;;;;;;;15.43;11.27;;;23.00;65.90;;;;;;5042682;28;20673;-65
2023/06/20 08:46:37;;;;;;;12.07;9.50;;;23.40;65.30;;;;;;5014470;28;20060;-66
2023/06/20 08:49:03;;;;;;;12.55;9.40;;;23.90;64.20;;;;;;5044990;28;20684;-65
2023/06/20 08:51:31;;;;;;;10.45;8.88;;;24.50;62.80;;;;;;5036953;28;20629;-66
2023/06/20 08:54:01;;;;;;;12.88;9.13;;;24.80;62.00;;;;;;5055933;28;20830;-66
2023/06/20 08:56:26;;;;;;;12.32;8.63;;;25.50;60.20;;;;;;5044601;28;20055;-66
2023/06/20 08:58:52;;;;;;;13.63;7.38;;;25.90;59.50;;;;;;5045997;28;20127;-67
2023/06/20 09:01:17;;;;;;;9.80;7.72;;;26.20;58.40;;;;;;5045686;28;20041;-65
2023/06/20 09:03:43;;;;;;;10.82;8.40;;;25.90;57.70;;;;;;5045530;28;20045;-64
2023/06/20 09:06:08;;;;;;;12.98;8.45;;;25.60;57.80;;;;;;5047608;28;20128;-66
2023/06/20 09:08:36;;;;;;;9.90;7.85;;;25.40;57.30;;;;;;5029126;28;20488;-66
2023/06/20 09:11:06;;;;;;;11.93;8.82;;;25.20;58.20;;;;;;5032341;28;20051;-64
2023/06/20 09:13:32;;;;;;;;;;;25.00;57.50;;;;;;5046642;28;20037;-66
2023/06/20 09:16:08;;;;;;;9.50;8.07;;;25.10;57.20;;;;;;5034114;28;20031;-65
2023/06/20 09:18:35;;;;;;;8.60;7.70;;;25.60;56.60;;;;;;5049975;28;20449;-68
2023/06/20 09:21:03;;;;;;;8.38;7.28;;;26.00;56.50;;;;;;5039101;28;20072;-66
2023/06/20 09:23:30;;;;;;;12.00;7.97;;;26.20;55.20;;;;;;5031033;28;20071;-65
2023/06/20 09:25:57;;;;;;;8.35;7.38;;;26.10;55.00;;;;;;5040024;28;20068;-66
2023/06/20 09:28:23;;;;;;;10.32;7.97;;;26.20;55.00;;;;;;5037180;28;20053;-66
2023/06/20 09:30:49;;;;;;;9.30;7.93;;;26.30;54.20;;;;;;5050050;28;20412;-67
2023/06/20 09:33:15;;;;;;;10.85;8.75;;;26.20;54.50;;;;;;5049448;28;20045;-68
2023/06/20 09:35:41;;;;;;;9.20;8.18;;;25.90;55.00;;;;;;5051173;28;20080;-66
2023/06/20 09:38:07;;;;;;;11.35;8.38;;;25.80;55.20;;;;;;5048785;28;20072;-66
2023/06/20 09:40:44;;;;;;;11.40;8.55;;;25.70;55.60;;;;;;5045155;28;20048;-66
2023/06/20 09:43:09;;;;;;;10.75;8.18;;;25.60;55.30;;;;;;5043812;28;20055;-67
2023/06/20 09:45:35;;;;;;;10.63;8.68;;;25.70;56.00;;;;;;5046732;28;20041;-66
2023/06/20 09:48:03;;;;;;;10.75;8.40;;;25.70;55.80;;;;;;5030427;28;20107;-66
2023/06/20 09:50:31;;;;;;;11.05;7.57;;;26.00;55.40;;;;;;5030797;28;20059;-67
2023/06/20 09:53:22;;;;;;;50.20;14.77;;;25.90;55.30;;;;;;5042615;28;20039;-66
2023/06/20 09:55:49;;;;;;;12.77;7.30;;;26.10;55.00;;;;;;5039917;28;20053;-65
2023/06/20 09:58:18;;;;;;;8.95;6.95;;;26.50;54.50;;;;;;5041079;28;20052;-66
2023/06/20 10:00:45;;;;;;;10.70;8.05;;;27.00;53.50;;;;;;5049397;28;20043;-66
2023/06/20 10:03:12;;;;;;;8.38;6.75;;;27.90;52.40;;;;;;5044884;28;20056;-66
2023/06/20 10:05:39;;;;;;;8.38;6.57;;;29.20;51.50;;;;;;5047486;28;20071;-66
2023/06/20 10:08:06;;;;;;;8.73;7.35;;;30.20;48.50;;;;;;5050575;28;20041;-66
2023/06/20 10:10:32;;;;;;;7.90;6.90;;;31.10;46.00;;;;;;5041333;28;20033;-67
2023/06/20 10:12:58;;;;;;;7.95;7.15;;;31.80;44.50;;;;;;5028813;28;20037;-66
2023/06/20 10:15:24;;;;;;;7.93;7.13;;;32.50;43.30;;;;;;5041138;28;20064;-66
2023/06/20 10:17:50;;;;;;;7.00;6.30;;;32.70;42.10;;;;;;5047236;28;20614;-67
2023/06/20 10:20:33;;;;;;;21.02;7.05;;;33.10;41.40;;;;;;5049128;28;20048;-67
2023/06/20 10:23:04;;;;;;;6.78;6.13;;;33.10;39.80;;;;;;5045232;28;20045;-67
2023/06/20 10:25:30;;;;;;;8.45;6.63;;;33.70;39.60;;;;;;5042358;28;20056;-66
2023/06/20 10:27:57;;;;;;;6.20;5.60;;;33.20;39.60;;;;;;5033453;28;20079;-67
2023/06/20 10:31:02;;;;;;;6.70;5.93;;;33.40;39.30;;;;;;5041872;28;20542;-68
2023/06/20 10:33:32;;;;;;;6.25;5.47;;;33.90;37.80;;;;;;4980510;28;20046;-67
2023/06/20 10:36:16;;;;;;;5.65;4.97;;;34.10;38.20;;;;;;5029910;28;20053;-67
2023/06/20 10:39:02;;;;;;;5.53;5.03;;;34.00;37.80;;;;;;5039357;28;20044;-68
2023/06/20 10:41:28;;;;;;;6.30;5.70;;;34.30;36.10;;;;;;5037296;28;20045;-67
2023/06/20 10:44:01;;;;;;;5.80;5.30;;;34.20;37.00;;;;;;5041070;28;20048;-68
2023/06/20 10:46:36;;;;;;;5.93;5.05;;;34.40;36.90;;;;;;5047894;28;20114;-67
2023/06/20 10:49:09;;;;;;;6.28;5.38;;;34.30;35.60;;;;;;5040523;28;20156;-68
2023/06/20 10:51:47;;;;;;;7.38;5.75;;;33.60;36.80;;;;;;5038538;28;20890;-66
2023/06/20 10:54:14;;;;;;;6.63;6.03;;;32.70;36.20;;;;;;5055062;28;20041;-66
2023/06/20 10:56:40;;;;;;;8.07;5.63;;;32.30;38.60;;;;;;5041964;28;20037;-67
2023/06/20 10:59:13;;;;;;;6.30;5.55;;;32.10;39.10;;;;;;5035437;28;20049;-68
2023/06/20 11:01:38;;;;;;;6.95;6.10;;;31.80;39.60;;;;;;5044582;28;20413;-68
2023/06/20 11:04:08;;;;;;;6.63;6.03;;;31.50;40.60;;;;;;5032839;28;20045;-68
2023/06/20 11:06:34;;;;;;;6.50;5.80;;;31.30;40.70;;;;;;5043540;28;20083;-67
2023/06/20 11:08:59;;;;;;;7.57;6.78;;;30.70;41.70;;;;;;5024622;28;20164;-67
2023/06/20 11:11:38;;;;;;;6.82;6.13;;;30.40;42.40;;;;;;5033601;28;20061;-67
2023/06/20 11:14:15;;;;;;;6.93;6.28;;;30.00;42.60;;;;;;5046340;28;20132;-69
2023/06/20 11:16:42;;;;;;;7.38;6.20;;;29.60;43.30;;;;;;5036391;28;20037;-67
2023/06/20 11:19:08;;;;;;;6.35;5.40;;;29.40;44.10;;;;;;5045612;28;20124;-66
2023/06/20 11:21:34;;;;;;;7.15;6.28;;;29.40;44.40;;;;;;5035850;28;20235;-67
2023/06/20 11:24:04;;;;;;;6.22;5.60;;;29.30;44.40;;;;;;5051854;28;20040;-67
2023/06/20 11:26:34;;;;;;;6.22;5.55;;;29.40;44.30;;;;;;5029594;28;20033;-65
2023/06/20 11:29:01;;;;;;;7.38;5.70;;;29.30;43.70;;;;;;5044448;28;20032;-68
2023/06/20 11:31:27;;;;;;;7.00;5.18;;;29.20;43.70;;;;;;5038668;28;20098;-66
2023/06/20 11:34:09;;;;;;;6.45;5.50;;;29.30;43.70;;;;;;5044438;28;20138;-68
2023/06/20 11:36:38;;;;;;;5.25;4.70;;;29.40;42.80;;;;;;5036930;28;20036;-67
2023/06/20 11:39:06;;;;;;;6.88;5.07;;;29.00;42.90;;;;;;5048807;28;20033;-67
2023/06/20 11:41:32;;;;;;;6.88;5.82;;;29.00;42.90;;;;;;5047033;28;20583;-67
2023/06/20 11:43:59;;;;;;;5.97;5.38;;;29.10;42.70;;;;;;5037745;28;20041;-65
2023/06/20 11:46:25;;;;;;;5.22;4.72;;;29.30;42.70;;;;;;5039267;28;20141;-68
2023/06/20 11:48:52;;;;;;;5.28;4.78;;;29.20;42.50;;;;;;5044684;28;20099;-68
2023/06/20 11:51:20;;;;;;;6.68;5.95;;;29.40;42.40;;;;;;5046722;28;20041;-67
2023/06/20 11:53:46;;;;;;;6.47;5.70;;;29.40;42.50;;;;;;5042142;28;20112;-67
2023/06/20 11:56:14;;;;;;;7.97;6.20;;;29.20;42.50;;;;;;5037381;28;20169;-66
2023/06/20 11:58:45;;;;;;;6.78;5.30;;;29.20;42.80;;;;;;5033177;28;20040;-64
2023/06/20 12:01:20;;;;;;;6.45;5.82;;;29.20;43.20;;;;;;5034267;28;20815;-65
2023/06/20 12:04:00;;;;;;;6.00;5.40;;;29.50;43.50;;;;;;5047082;28;20037;-64
2023/06/20 12:06:30;;;;;;;;;;;29.80;42.70;;;;;;5028163;28;20083;-65
2023/06/20 12:08:59;;;;;;;6.40;5.77;;;30.30;41.80;;;;;;5043514;28;19921;-62
2023/06/20 12:11:26;;;;;;;7.10;6.00;;;30.30;42.10;;;;;;5039791;28;20465;-63
2023/06/20 12:13:52;;;;;;;5.82;4.95;;;30.70;41.50;;;;;;5061190;28;20108;-64
2023/06/20 12:16:19;;;;;;;6.45;5.85;;;30.50;41.40;;;;;;5046035;28;20033;-65
2023/06/20 12:18:46;;;;;;;5.80;5.20;;;30.20;41.70;;;;;;5030420;28;20041;-65
2023/06/20 12:21:11;;;;;;;6.38;5.75;;;29.90;42.40;;;;;;5030034;28;20045;-64
2023/06/20 12:23:37;;;;;;;6.07;5.47;;;30.00;42.40;;;;;;5036780;28;20095;-65
2023/06/20 12:26:02;;;;;;;5.75;5.15;;;30.00;42.40;;;;;;5044350;28;20508;-65
2023/06/20 12:28:28;;;;;;;6.15;5.55;;;30.20;42.30;;;;;;5048680;28;20049;-64
2023/06/20 12:30:54;;;;;;;5.65;5.15;;;30.80;41.70;;;;;;5041236;28;20044;-64
2023/06/20 12:33:19;;;;;;;6.03;5.05;;;31.40;40.60;;;;;;5038883;28;20091;-67
2023/06/20 12:35:45;;;;;;;5.38;4.65;;;32.60;38.60;;;;;;5045638;28;20152;-65
2023/06/20 12:38:11;;;;;;;4.82;4.32;;;34.00;36.30;;;;;;5045458;28;20102;-65
2023/06/20 12:40:37;;;;;;;6.15;4.55;;;34.40;34.60;;;;;;5045034;28;20033;-64